Time;durP1;ratioP1;P1;durP2;ratioP2;P2;SDS_P1;SDS_P2;PMS_P1;PMS_P2;Temp;Humidity;BMP_temperature;BMP_pressure;BME280_temperature;BME280_humidity;BME280_pressure;Samples;Min_cycle;Max_cycle;Signal;HPM_P1;HPM_P2
2022/09/26 00:02:31;;;;;;;161.15;61.60;;;;;;;;;;6168781;28;20047;-58
2022/09/26 00:05:32;;;;;;;164.70;60.63;;;;;;;;;;6167860;28;20043;-56
2022/09/26 00:08:35;;;;;;;153.88;60.00;;;;;;;;;;6168378;28;20157;-57
2022/09/26 00:11:35;;;;;;;165.18;63.05;;;;;;;;;;6168120;28;20165;-55
2022/09/26 00:14:36;;;;;;;170.93;64.82;;;;;;;;;;6163992;28;20043;-58
2022/09/26 00:17:36;;;;;;;165.30;65.07;;;;;;;;;;6162615;28;20046;-56
2022/09/26 00:20:37;;;;;;;181.10;72.22;;;;;;;;;;6162958;28;20047;-57
2022/09/26 00:23:38;;;;;;;170.63;67.47;;;;;;;;;;6159517;28;20078;-62
2022/09/26 00:26:39;;;;;;;161.43;64.23;;;;;;;;;;6166369;28;20133;-58
2022/09/26 00:29:40;;;;;;;173.00;66.80;;;;;;;;;;6164670;28;20419;-59
2022/09/26 00:32:40;;;;;;;168.10;65.78;;;;;;;;;;6166161;28;20052;-57
2022/09/26 00:35:48;;;;;;;170.10;65.82;;;;;;;;;;6164453;28;20077;-62
2022/09/26 00:38:49;;;;;;;186.23;72.30;;;;;;;;;;6168619;28;20181;-61
2022/09/26 00:41:49;;;;;;;186.38;70.85;;;;;;;;;;6168033;28;20059;-60
2022/09/26 00:44:53;;;;;;;161.82;63.03;;;;;;;;;;6165181;28;20059;-58
2022/09/26 00:48:05;;;;;;;158.77;63.33;;;;;;;;;;6166768;28;20066;-58
2022/09/26 00:51:06;;;;;;;160.52;60.80;;;;;;;;;;6166503;28;20043;-61
2022/09/26 00:54:12;;;;;;;166.63;64.77;;;;;;;;;;6163818;28;20145;-60
2022/09/26 00:57:17;;;;;;;158.70;59.17;;;;;;;;;;6167274;28;20285;-55
2022/09/26 01:00:19;;;;;;;164.90;59.42;;;;;;;;;;6166444;28;20145;-60
2022/09/26 01:03:20;;;;;;;153.48;59.63;;;;;;;;;;6163895;28;20141;-57
2022/09/26 01:06:21;;;;;;;166.40;58.72;;;;;;;;;;6162984;28;20756;-57
2022/09/26 01:09:22;;;;;;;147.30;52.13;;;;;;;;;;6161947;28;20046;-57
2022/09/26 01:12:22;;;;;;;133.85;52.35;;;;;;;;;;6160802;28;20524;-55
2022/09/26 01:15:23;;;;;;;140.77;54.80;;;;;;;;;;6161981;28;20068;-59
2022/09/26 01:18:23;;;;;;;162.40;64.43;;;;;;;;;;6162514;28;20051;-53
2022/09/26 01:21:43;;;;;;;145.80;58.15;;;;;;;;;;6161066;28;20046;-57
2022/09/26 01:25:06;;;;;;;144.68;57.90;;;;;;;;;;6162122;28;20093;-53
2022/09/26 01:28:41;;;;;;;142.88;56.22;;;;;;;;;;6163134;28;20046;-56
2022/09/26 01:35:55;;;;;;;151.57;57.15;;;;;;;;;;6152231;28;20057;-54
2022/09/26 01:39:31;;;;;;;144.50;55.70;;;;;;;;;;6163178;28;20035;-56
2022/09/26 01:42:48;;;;;;;145.52;56.67;;;;;;;;;;6153295;28;20121;-57
2022/09/26 01:45:57;;;;;;;137.70;56.53;;;;;;;;;;6159174;28;20069;-58
2022/09/26 01:49:10;;;;;;;147.63;55.88;;;;;;;;;;6159998;28;20118;-56
2022/09/26 01:52:38;;;;;;;140.15;54.72;;;;;;;;;;6161697;28;20142;-56
2022/09/26 01:55:41;;;;;;;144.05;54.33;;;;;;;;;;6162508;28;20069;-56
2022/09/26 01:58:50;;;;;;;134.70;53.17;;;;;;;;;;6160865;28;20074;-57
2022/09/26 02:02:01;;;;;;;142.60;54.13;;;;;;;;;;6161008;28;20434;-57
2022/09/26 02:05:10;;;;;;;137.77;51.45;;;;;;;;;;6163078;28;20516;-55
2022/09/26 02:08:25;;;;;;;138.85;52.65;;;;;;;;;;6160430;28;20054;-55
2022/09/26 02:11:25;;;;;;;143.73;55.40;;;;;;;;;;6161427;28;20034;-61
2022/09/26 02:14:33;;;;;;;140.80;50.53;;;;;;;;;;6161828;28;20053;-56
2022/09/26 02:17:41;;;;;;;151.30;62.92;;;;;;;;;;6160924;28;20050;-57
2022/09/26 02:20:47;;;;;;;147.27;59.53;;;;;;;;;;6162761;28;20483;-59
2022/09/26 02:23:49;;;;;;;142.18;57.42;;;;;;;;;;6162278;28;20558;-59
2022/09/26 02:26:51;;;;;;;151.30;56.85;;;;;;;;;;6162556;28;20562;-57
2022/09/26 02:29:52;;;;;;;143.57;55.72;;;;;;;;;;6167038;28;20066;-58
2022/09/26 02:32:52;;;;;;;140.60;55.35;;;;;;;;;;6167044;28;20047;-57
2022/09/26 02:35:54;;;;;;;130.50;51.80;;;;;;;;;;6168526;28;20053;-58
2022/09/26 02:38:56;;;;;;;135.20;53.60;;;;;;;;;;6161395;28;20050;-61
2022/09/26 02:42:01;;;;;;;144.27;55.88;;;;;;;;;;6160473;28;20054;-59
2022/09/26 02:45:10;;;;;;;128.45;53.03;;;;;;;;;;6162430;28;20051;-56
2022/09/26 02:48:45;;;;;;;146.07;54.83;;;;;;;;;;6162273;28;20058;-60
2022/09/26 02:52:16;;;;;;;139.07;53.40;;;;;;;;;;6160926;28;20062;-57
2022/09/26 02:55:25;;;;;;;141.00;54.25;;;;;;;;;;6160497;28;20590;-60
2022/09/26 02:58:50;;;;;;;148.73;56.10;;;;;;;;;;6159629;28;20131;-60
2022/09/26 03:02:01;;;;;;;132.40;53.38;;;;;;;;;;6162406;28;20158;-56
2022/09/26 03:05:08;;;;;;;148.37;56.70;;;;;;;;;;6166688;28;20050;-58
2022/09/26 03:08:19;;;;;;;147.77;58.08;;;;;;;;;;6160499;28;20077;-58
2022/09/26 03:11:23;;;;;;;152.10;59.25;;;;;;;;;;6159606;28;21722;-56
2022/09/26 03:14:25;;;;;;;169.07;67.28;;;;;;;;;;6159599;28;20051;-54
2022/09/26 03:17:27;;;;;;;155.20;57.45;;;;;;;;;;6161784;28;20075;-55
2022/09/26 03:20:28;;;;;;;143.50;55.53;;;;;;;;;;6165105;28;20469;-53
2022/09/26 03:23:29;;;;;;;148.13;56.65;;;;;;;;;;6165938;28;20066;-56
2022/09/26 03:26:31;;;;;;;146.75;55.15;;;;;;;;;;6165376;28;20046;-57
2022/09/26 03:29:32;;;;;;;155.25;63.13;;;;;;;;;;6161544;28;20055;-59
2022/09/26 03:32:32;;;;;;;149.98;59.58;;;;;;;;;;6166921;28;20489;-57
2022/09/26 03:35:33;;;;;;;134.15;54.38;;;;;;;;;;6165795;28;20051;-56
2022/09/26 03:38:34;;;;;;;140.20;54.75;;;;;;;;;;6165358;28;20057;-55
2022/09/26 03:41:34;;;;;;;148.48;56.15;;;;;;;;;;6167324;28;20050;-55
2022/09/26 03:44:35;;;;;;;139.55;54.33;;;;;;;;;;6166854;28;20053;-55
2022/09/26 03:47:40;;;;;;;152.80;60.83;;;;;;;;;;6167734;28;20142;-58
2022/09/26 03:50:41;;;;;;;154.32;59.60;;;;;;;;;;6165209;28;20086;-55
2022/09/26 03:53:44;;;;;;;141.57;56.05;;;;;;;;;;6164974;28;20042;-58
2022/09/26 03:56:45;;;;;;;144.35;59.33;;;;;;;;;;6166469;28;20078;-53
2022/09/26 03:59:46;;;;;;;149.05;57.25;;;;;;;;;;6162779;28;20409;-56
2022/09/26 04:02:46;;;;;;;138.23;55.60;;;;;;;;;;6165862;28;20502;-57
2022/09/26 04:05:47;;;;;;;146.65;59.08;;;;;;;;;;6165767;28;20080;-55
2022/09/26 04:08:49;;;;;;;144.48;59.40;;;;;;;;;;6163313;28;20046;-59
2022/09/26 04:11:52;;;;;;;153.38;60.20;;;;;;;;;;6163283;28;20134;-56
2022/09/26 04:14:53;;;;;;;169.88;66.40;;;;;;;;;;6165187;28;20082;-56
2022/09/26 04:17:54;;;;;;;166.77;62.90;;;;;;;;;;6162857;28;20034;-58
2022/09/26 04:20:59;;;;;;;154.35;58.17;;;;;;;;;;6164317;28;20078;-56
2022/09/26 04:24:01;;;;;;;150.00;58.08;;;;;;;;;;6164786;28;20482;-60
2022/09/26 04:27:01;;;;;;;149.50;59.67;;;;;;;;;;6164673;28;20046;-56
2022/09/26 04:30:02;;;;;;;156.68;60.45;;;;;;;;;;6161912;28;20046;-57
2022/09/26 04:33:03;;;;;;;153.57;58.75;;;;;;;;;;6164121;28;20094;-58
2022/09/26 04:36:10;;;;;;;158.60;60.25;;;;;;;;;;6165099;28;20046;-59
2022/09/26 04:39:11;;;;;;;152.43;58.42;;;;;;;;;;6169319;28;20101;-59
2022/09/26 04:42:11;;;;;;;163.18;63.72;;;;;;;;;;6180732;28;20051;-60
2022/09/26 04:45:12;;;;;;;164.82;65.72;;;;;;;;;;6182552;28;20121;-59
2022/09/26 04:48:12;;;;;;;153.93;64.47;;;;;;;;;;6191617;28;20096;-58
2022/09/26 04:51:15;;;;;;;162.30;62.38;;;;;;;;;;6193372;28;20062;-57
2022/09/26 04:54:15;;;;;;;154.50;60.67;;;;;;;;;;6180825;28;20054;-58
2022/09/26 04:57:16;;;;;;;162.68;61.63;;;;;;;;;;6189535;28;20143;-59
2022/09/26 05:00:17;;;;;;;162.32;65.35;;;;;;;;;;6171081;28;20070;-59
2022/09/26 05:03:18;;;;;;;162.10;61.47;;;;;;;;;;6171406;28;20415;-59
2022/09/26 05:06:19;;;;;;;175.40;62.80;;;;;;;;;;6162586;28;20145;-57
2022/09/26 05:09:19;;;;;;;175.47;65.83;;;;;;;;;;6160175;28;20070;-58
2022/09/26 05:12:20;;;;;;;170.02;64.40;;;;;;;;;;6159263;28;20057;-58
2022/09/26 05:15:21;;;;;;;162.23;62.65;;;;;;;;;;6160338;28;20043;-60
2022/09/26 05:18:24;;;;;;;168.32;62.17;;;;;;;;;;6162281;28;20038;-59
2022/09/26 05:21:25;;;;;;;164.88;61.17;;;;;;;;;;6164979;28;20542;-58
2022/09/26 05:27:45;;;;;;;178.43;64.72;;;;;;;;;;6158278;28;20142;-59
2022/09/26 05:30:45;;;;;;;175.45;65.47;;;;;;;;;;6156004;28;20404;-59
2022/09/26 05:33:46;;;;;;;170.02;63.63;;;;;;;;;;6160384;28;20046;-60
2022/09/26 05:36:46;;;;;;;172.30;63.95;;;;;;;;;;6160337;28;20047;-61
2022/09/26 05:43:07;;;;;;;194.02;74.43;;;;;;;;;;6161178;28;20057;-58
2022/09/26 05:46:09;;;;;;;209.77;80.75;;;;;;;;;;6162161;28;20047;-57
2022/09/26 05:49:12;;;;;;;215.73;86.72;;;;;;;;;;6160765;28;20557;-58
2022/09/26 05:52:13;;;;;;;212.68;82.90;;;;;;;;;;6160879;28;20112;-59
2022/09/26 05:55:14;;;;;;;181.53;71.47;;;;;;;;;;6160963;28;20081;-58
2022/09/26 05:58:15;;;;;;;190.48;74.50;;;;;;;;;;6162031;28;20058;-59
2022/09/26 06:01:17;;;;;;;194.18;74.80;;;;;;;;;;6159991;28;20053;-58
2022/09/26 06:04:18;;;;;;;190.30;73.90;;;;;;;;;;6162024;28;20065;-58
2022/09/26 06:07:19;;;;;;;193.90;74.53;;;;;;;;;;6160287;28;20063;-59
2022/09/26 06:10:20;;;;;;;197.57;76.38;;;;;;;;;;6156642;28;20043;-62
2022/09/26 06:13:21;;;;;;;196.63;77.00;;;;;;;;;;6155965;28;20518;-59
2022/09/26 06:16:21;;;;;;;190.70;72.93;;;;;;;;;;6158360;28;20047;-58
2022/09/26 06:19:22;;;;;;;190.48;74.70;;;;;;;;;;6164019;28;20557;-59
2022/09/26 06:22:23;;;;;;;192.80;75.35;;;;;;;;;;6163604;28;20495;-59
2022/09/26 06:25:24;;;;;;;191.50;73.35;;;;;;;;;;6168365;28;20050;-61
2022/09/26 06:28:26;;;;;;;179.30;74.22;;;;;;;;;;6166425;28;20589;-62
2022/09/26 06:31:28;;;;;;;204.82;76.10;;;;;;;;;;6165962;28;20772;-61
2022/09/26 06:34:29;;;;;;;182.95;74.00;;;;;;;;;;6169508;28;20059;-59
2022/09/26 06:37:29;;;;;;;186.90;77.05;;;;;;;;;;6168206;28;20110;-60
2022/09/26 06:40:32;;;;;;;182.18;70.35;;;;;;;;;;6163386;28;20054;-61
2022/09/26 06:43:33;;;;;;;201.80;73.82;;;;;;;;;;6165908;28;20082;-59
2022/09/26 06:46:34;;;;;;;190.45;71.75;;;;;;;;;;6166891;28;20093;-59
2022/09/26 06:49:34;;;;;;;163.25;66.95;;;;;;;;;;6164157;28;20506;-59
2022/09/26 06:52:36;;;;;;;183.70;72.57;;;;;;;;;;6161175;28;20082;-59
2022/09/26 06:55:36;;;;;;;178.90;71.72;;;;;;;;;;6166025;28;20113;-60
2022/09/26 06:58:38;;;;;;;175.65;67.60;;;;;;;;;;6164926;28;20057;-60
2022/09/26 07:01:38;;;;;;;206.35;86.90;;;;;;;;;;6163080;28;20121;-58
2022/09/26 07:04:39;;;;;;;204.50;76.43;;;;;;;;;;6164643;28;20558;-58
2022/09/26 07:07:41;;;;;;;212.13;77.20;;;;;;;;;;6162830;28;20055;-62
2022/09/26 07:10:41;;;;;;;191.70;71.22;;;;;;;;;;6177164;28;20569;-62
2022/09/26 07:13:43;;;;;;;196.90;71.63;;;;;;;;;;6161602;28;20057;-60
2022/09/26 07:16:47;;;;;;;198.57;73.63;;;;;;;;;;6162222;28;20452;-58
2022/09/26 07:19:51;;;;;;;182.32;73.35;;;;;;;;;;6163951;28;20089;-61
2022/09/26 07:22:51;;;;;;;193.00;72.20;;;;;;;;;;6160763;28;20070;-60
2022/09/26 07:25:52;;;;;;;183.38;73.43;;;;;;;;;;6162605;28;20129;-59
2022/09/26 07:28:53;;;;;;;171.15;71.50;;;;;;;;;;6163956;28;20046;-63
2022/09/26 07:31:53;;;;;;;155.80;62.53;;;;;;;;;;6159655;28;20557;-59
2022/09/26 07:34:54;;;;;;;152.18;60.85;;;;;;;;;;6161942;28;20930;-62
2022/09/26 07:37:55;;;;;;;141.80;55.30;;;;;;;;;;6163911;28;20047;-61
2022/09/26 07:40:58;;;;;;;153.00;58.53;;;;;;;;;;6169069;28;20632;-60
2022/09/26 07:44:00;;;;;;;166.07;68.13;;;;;;;;;;6169973;28;20065;-59
2022/09/26 07:50:21;;;;;;;157.63;71.72;;;;;;;;;;6173848;28;20050;-59
2022/09/26 07:53:26;;;;;;;149.25;62.47;;;;;;;;;;6167409;28;20138;-60
2022/09/26 07:56:26;;;;;;;139.93;58.10;;;;;;;;;;6169290;28;20492;-61
2022/09/26 07:59:27;;;;;;;130.07;54.58;;;;;;;;;;6168480;28;20147;-60
2022/09/26 08:02:33;;;;;;;137.98;57.42;;;;;;;;;;6168111;28;20157;-56
2022/09/26 08:05:33;;;;;;;136.02;57.22;;;;;;;;;;6171065;28;20129;-60
2022/09/26 08:08:35;;;;;;;144.20;58.75;;;;;;;;;;6161462;28;20399;-60
2022/09/26 08:11:36;;;;;;;145.45;60.60;;;;;;;;;;6167265;28;20137;-59
2022/09/26 08:14:36;;;;;;;141.40;57.90;;;;;;;;;;6166512;28;20865;-60
2022/09/26 08:17:38;;;;;;;148.73;60.95;;;;;;;;;;6169358;28;20154;-59
2022/09/26 08:20:38;;;;;;;140.13;59.00;;;;;;;;;;6168015;28;20050;-62
2022/09/26 08:23:39;;;;;;;151.93;63.47;;;;;;;;;;6166742;28;20085;-59
2022/09/26 08:26:39;;;;;;;156.45;67.75;;;;;;;;;;6168949;28;20221;-59
2022/09/26 08:29:40;;;;;;;157.27;69.55;;;;;;;;;;6169184;28;20045;-62
2022/09/26 08:32:41;;;;;;;142.57;62.70;;;;;;;;;;6166962;28;20062;-60
2022/09/26 08:35:42;;;;;;;116.28;50.65;;;;;;;;;;6167187;28;20402;-60
2022/09/26 08:38:42;;;;;;;113.38;50.33;;;;;;;;;;6166420;28;20045;-60
2022/09/26 08:42:08;;;;;;;109.78;47.78;;;;;;;;;;6167582;28;20557;-61
2022/09/26 08:49:16;;;;;;;103.45;45.47;;;;;;;;;;6156317;28;20105;-60
2022/09/26 08:52:44;;;;;;;118.20;52.60;;;;;;;;;;6165167;28;20066;-59
2022/09/26 08:55:47;;;;;;;117.80;50.90;;;;;;;;;;6165178;28;20043;-62
2022/09/26 08:58:51;;;;;;;115.43;51.40;;;;;;;;;;6164186;28;20076;-57
2022/09/26 09:01:57;;;;;;;114.38;48.60;;;;;;;;;;6166389;28;20042;-59
2022/09/26 09:05:21;;;;;;;121.43;53.03;;;;;;;;;;6166124;28;20054;-60
2022/09/26 09:08:44;;;;;;;128.02;57.63;;;;;;;;;;6167142;28;20208;-59
2022/09/26 09:12:08;;;;;;;118.55;52.95;;;;;;;;;;6170639;28;20043;-61
2022/09/26 09:15:17;;;;;;;126.53;55.53;;;;;;;;;;6156066;28;20081;-58
2022/09/26 09:18:35;;;;;;;128.27;56.38;;;;;;;;;;6157586;28;20182;-58
2022/09/26 09:21:59;;;;;;;117.10;50.58;;;;;;;;;;6159745;28;20145;-57
2022/09/26 09:25:08;;;;;;;113.35;49.97;;;;;;;;;;6165235;28;20054;-60
2022/09/26 09:28:23;;;;;;;115.22;51.50;;;;;;;;;;6165611;28;20034;-60
2022/09/26 09:31:28;;;;;;;110.72;51.33;;;;;;;;;;6166082;28;20154;-62
2022/09/26 09:34:33;;;;;;;108.43;44.90;;;;;;;;;;6166396;28;20190;-63
2022/09/26 09:37:42;;;;;;;101.28;43.35;;;;;;;;;;6157616;28;20153;-62
2022/09/26 09:40:47;;;;;;;110.25;50.13;;;;;;;;;;6158567;28;20407;-62
2022/09/26 09:43:50;;;;;;;96.53;44.00;;;;;;;;;;6158021;28;20426;-62
2022/09/26 09:46:51;;;;;;;94.53;40.90;;;;;;;;;;6156233;28;20105;-62
2022/09/26 09:49:52;;;;;;;93.75;41.47;;;;;;;;;;6155205;28;20039;-63
2022/09/26 09:53:06;;;;;;;90.53;40.63;;;;;;;;;;6158100;28;20086;-61
2022/09/26 09:56:27;;;;;;;91.80;40.05;;;;;;;;;;6155336;28;20399;-62
2022/09/26 09:59:49;;;;;;;98.75;42.28;;;;;;;;;;6157427;28;20785;-59
2022/09/26 10:02:53;;;;;;;100.05;47.80;;;;;;;;;;6156382;28;20097;-61
2022/09/26 10:05:59;;;;;;;85.03;39.92;;;;;;;;;;6156913;28;20117;-62
2022/09/26 10:09:17;;;;;;;94.53;42.22;;;;;;;;;;6156680;28;20058;-61
2022/09/26 10:12:23;;;;;;;90.15;39.85;;;;;;;;;;6157596;28;20075;-61
2022/09/26 10:15:26;;;;;;;89.30;38.70;;;;;;;;;;6166435;28;20042;-62
2022/09/26 10:18:27;;;;;;;81.55;36.75;;;;;;;;;;6160392;28;20138;-63
2022/09/26 10:21:39;;;;;;;75.65;35.78;;;;;;;;;;6158918;28;20534;-58
2022/09/26 10:24:40;;;;;;;61.78;28.25;;;;;;;;;;6156269;28;20070;-58
2022/09/26 10:27:49;;;;;;;60.13;28.02;;;;;;;;;;6157567;28;20038;-61
2022/09/26 10:30:52;;;;;;;65.45;31.05;;;;;;;;;;6162148;28;20522;-61
2022/09/26 10:33:58;;;;;;;61.95;30.02;;;;;;;;;;6158906;28;20047;-62
2022/09/26 10:37:31;;;;;;;67.22;30.13;;;;;;;;;;6154376;28;20384;-62
2022/09/26 10:40:44;;;;;;;56.75;26.33;;;;;;;;;;6119856;28;20054;-62
2022/09/26 10:43:52;;;;;;;88.00;39.30;;;;;;;;;;6154784;28;20055;-62
2022/09/26 10:46:56;;;;;;;85.05;38.35;;;;;;;;;;6159769;28;20043;-61
2022/09/26 10:50:10;;;;;;;112.65;48.10;;;;;;;;;;6156649;28;20043;-61
2022/09/26 10:53:14;;;;;;;79.45;37.22;;;;;;;;;;6155105;28;20131;-62
2022/09/26 10:56:24;;;;;;;71.70;32.55;;;;;;;;;;6155249;28;20089;-59
2022/09/26 10:59:30;;;;;;;86.18;38.08;;;;;;;;;;6150820;28;20050;-62
2022/09/26 11:02:31;;;;;;;70.88;33.15;;;;;;;;;;6152604;28;20073;-62
2022/09/26 11:05:55;;;;;;;70.22;32.60;;;;;;;;;;6163520;28;20050;-62
2022/09/26 11:09:01;;;;;;;74.18;33.75;;;;;;;;;;6161086;28;20132;-62
2022/09/26 11:12:25;;;;;;;75.93;35.67;;;;;;;;;;6154023;28;20066;-62
2022/09/26 11:15:27;;;;;;;65.88;31.70;;;;;;;;;;6159645;28;20085;-60
2022/09/26 11:18:56;;;;;;;68.82;30.67;;;;;;;;;;6155999;28;20478;-63
2022/09/26 11:22:08;;;;;;;71.95;32.83;;;;;;;;;;6163744;28;20047;-60
2022/09/26 11:25:23;;;;;;;63.38;30.25;;;;;;;;;;6161170;28;20047;-62
2022/09/26 11:28:33;;;;;;;67.75;31.98;;;;;;;;;;6165086;28;20161;-61
2022/09/26 11:31:42;;;;;;;62.00;29.08;;;;;;;;;;6154991;28;20751;-62
2022/09/26 11:34:44;;;;;;;73.03;34.13;;;;;;;;;;6160990;28;20101;-62
2022/09/26 11:38:02;;;;;;;67.47;32.40;;;;;;;;;;6154803;28;20046;-62
2022/09/26 11:41:16;;;;;;;72.28;32.05;;;;;;;;;;6158654;28;20449;-59
2022/09/26 11:44:43;;;;;;;64.20;31.23;;;;;;;;;;6159382;28;20055;-62
2022/09/26 11:48:09;;;;;;;60.80;28.20;;;;;;;;;;6158787;28;20046;-62
2022/09/26 11:51:39;;;;;;;45.75;22.77;;;;;;;;;;6156973;28;20073;-60
2022/09/26 11:55:00;;;;;;;52.50;25.77;;;;;;;;;;6162670;28;20149;-62
2022/09/26 11:58:24;;;;;;;54.27;26.37;;;;;;;;;;6161471;28;20105;-62
2022/09/26 12:01:41;;;;;;;48.88;23.95;;;;;;;;;;6158808;28;20062;-62
2022/09/26 12:04:59;;;;;;;43.92;22.80;;;;;;;;;;6157458;28;20129;-62
2022/09/26 12:08:19;;;;;;;45.88;22.77;;;;;;;;;;6160653;28;20043;-62
2022/09/26 12:11:58;;;;;;;50.22;21.10;;;;;;;;;;6161501;28;20141;-62
2022/09/26 12:15:19;;;;;;;33.80;17.27;;;;;;;;;;6149625;28;20618;-61
2022/09/26 12:18:42;;;;;;;36.58;19.27;;;;;;;;;;6157812;28;20465;-63
2022/09/26 12:25:34;;;;;;;30.25;16.67;;;;;;;;;;6157701;28;20043;-62
2022/09/26 12:28:39;;;;;;;30.50;16.90;;;;;;;;;;6156581;28;21125;-62
2022/09/26 12:32:13;;;;;;;28.48;16.00;;;;;;;;;;6159771;28;20462;-62
2022/09/26 12:35:42;;;;;;;28.50;16.70;;;;;;;;;;6155634;28;20070;-62
2022/09/26 12:39:02;;;;;;;25.23;14.73;;;;;;;;;;6158026;28;20051;-62
2022/09/26 12:42:25;;;;;;;29.40;14.43;;;;;;;;;;6168063;28;20066;-59
2022/09/26 12:45:52;;;;;;;29.67;16.25;;;;;;;;;;6144349;29;20179;-60
2022/09/26 12:49:17;;;;;;;23.25;12.85;;;;;;;;;;6140248;29;20043;-60
2022/09/26 12:52:29;;;;;;;27.90;14.02;;;;;;;;;;6131092;28;20162;-62
2022/09/26 12:55:43;;;;;;;;;;;;;;;;;;6134472;29;20178;-59
2022/09/26 12:59:13;;;;;;;31.83;16.73;;;;;;;;;;6135141;29;19930;-60
2022/09/26 13:02:33;;;;;;;35.13;17.58;;;;;;;;;;6143030;29;20070;-63
2022/09/26 13:05:49;;;;;;;33.95;17.95;;;;;;;;;;6141367;29;20459;-61
2022/09/26 13:09:08;;;;;;;31.10;15.65;;;;;;;;;;6140502;29;20467;-63
2022/09/26 13:12:32;;;;;;;28.92;15.80;;;;;;;;;;6140170;29;20406;-63
2022/09/26 13:15:34;;;;;;;28.27;14.60;;;;;;;;;;6142309;29;20217;-62
2022/09/26 13:18:43;;;;;;;33.47;18.20;;;;;;;;;;6141394;29;20051;-61
2022/09/26 13:21:53;;;;;;;31.08;15.73;;;;;;;;;;6141944;29;20476;-62
2022/09/26 13:25:04;;;;;;;38.08;18.45;;;;;;;;;;6141454;29;20055;-62
2022/09/26 13:28:22;;;;;;;31.90;17.92;;;;;;;;;;6139383;29;20130;-61
2022/09/26 13:31:43;;;;;;;29.17;14.70;;;;;;;;;;6141170;29;20145;-62
2022/09/26 13:34:47;;;;;;;28.42;13.35;;;;;;;;;;6140336;29;20043;-62
2022/09/26 13:37:59;;;;;;;24.33;13.88;;;;;;;;;;6142287;29;20043;-60
2022/09/26 13:41:24;;;;;;;26.05;13.95;;;;;;;;;;6142255;29;20111;-60
2022/09/26 13:44:52;;;;;;;30.05;11.82;;;;;;;;;;6151004;28;20322;-62
2022/09/26 13:48:09;;;;;;;32.88;17.17;;;;;;;;;;6150780;28;20047;-61
2022/09/26 13:51:21;;;;;;;17.25;9.30;;;;;;;;;;6160865;28;20042;-61
2022/09/26 13:54:54;;;;;;;16.58;9.40;;;;;;;;;;6157175;28;20709;-60
2022/09/26 13:57:58;;;;;;;19.48;9.85;;;;;;;;;;6128968;28;20054;-59
2022/09/26 14:01:23;;;;;;;17.95;8.90;;;;;;;;;;6154925;28;20228;-60
2022/09/26 14:04:33;;;;;;;18.27;9.07;;;;;;;;;;6156774;28;20142;-60
2022/09/26 14:11:07;;;;;;;16.80;9.82;;;;;;;;;;6157356;28;20073;-59
2022/09/26 14:14:17;;;;;;;;;;;;;;;;;;6155996;28;20133;-61
2022/09/26 14:17:43;;;;;;;19.00;11.25;;;;;;;;;;6154794;28;19933;-62
2022/09/26 14:20:54;;;;;;;20.77;11.95;;;;;;;;;;6141039;28;20047;-61
2022/09/26 14:24:24;;;;;;;17.00;8.75;;;;;;;;;;6156867;28;20501;-61
2022/09/26 14:27:31;;;;;;;22.73;11.68;;;;;;;;;;6157000;28;20162;-62
2022/09/26 14:30:32;;;;;;;23.02;11.98;;;;;;;;;;6165670;28;20060;-61
2022/09/26 14:33:33;;;;;;;18.80;9.73;;;;;;;;;;6166864;28;20501;-62
2022/09/26 14:36:34;;;;;;;19.30;9.00;;;;;;;;;;6165255;28;20054;-64
2022/09/26 14:39:42;;;;;;;15.97;9.13;;;;;;;;;;6165645;28;20082;-61
2022/09/26 14:42:54;;;;;;;20.95;11.20;;;;;;;;;;6166288;28;20644;-59
2022/09/26 14:46:12;;;;;;;23.60;12.73;;;;;;;;;;6148758;28;20169;-60
2022/09/26 14:49:23;;;;;;;33.67;16.08;;;;;;;;;;6140950;28;20617;-61
2022/09/26 14:52:24;;;;;;;31.73;16.75;;;;;;;;;;6143260;28;20067;-62
2022/09/26 14:55:25;;;;;;;35.47;16.95;;;;;;;;;;6142883;28;20435;-62
2022/09/26 14:58:35;;;;;;;37.70;17.73;;;;;;;;;;6141218;29;20094;-58
2022/09/26 15:01:37;;;;;;;36.28;18.02;;;;;;;;;;6140047;28;20039;-59
2022/09/26 15:04:38;;;;;;;;;;;;;;;;;;6139859;29;20122;-63
2022/09/26 15:07:44;;;;;;;38.35;17.33;;;;;;;;;;6142508;29;19973;-58
2022/09/26 15:10:46;;;;;;;42.30;19.52;;;;;;;;;;6141273;29;20142;-63
2022/09/26 15:13:50;;;;;;;41.60;19.83;;;;;;;;;;6152161;28;20161;-64
2022/09/26 15:16:54;;;;;;;39.17;19.77;;;;;;;;;;6147105;29;20539;-62
2022/09/26 15:19:57;;;;;;;38.13;18.90;;;;;;;;;;6136895;29;20047;-61
2022/09/26 15:22:59;;;;;;;50.72;23.05;;;;;;;;;;6145170;28;20153;-59
2022/09/26 15:26:04;;;;;;;46.92;22.65;;;;;;;;;;6145728;28;20498;-60
2022/09/26 15:29:07;;;;;;;48.92;22.95;;;;;;;;;;6146041;28;20054;-62
2022/09/26 15:32:15;;;;;;;41.83;20.98;;;;;;;;;;6145796;29;20520;-62
2022/09/26 15:35:16;;;;;;;285.92;143.38;;;;;;;;;;6145633;29;20142;-60
2022/09/26 15:38:17;;;;;;;360.48;196.48;;;;;;;;;;6146090;29;20054;-58
2022/09/26 15:42:57;;;;;;;40.90;18.92;;;;;;;;;;6146477;28;20191;-61
2022/09/26 15:44:47;;;;;;;32.03;15.98;;;;;;;;;;6159853;28;20082;-58
2022/09/26 15:47:47;;;;;;;28.42;15.00;;;;;;;;;;6146116;29;20641;-57
2022/09/26 15:50:59;;;;;;;25.80;12.52;;;;;;;;;;6144217;29;20040;-59
2022/09/26 15:54:10;;;;;;;28.02;14.13;;;;;;;;;;6143722;29;20075;-61
2022/09/26 15:57:11;;;;;;;32.35;14.35;;;;;;;;;;6143067;29;20059;-61
2022/09/26 16:00:13;;;;;;;32.30;15.40;;;;;;;;;;6146205;29;20078;-60
2022/09/26 16:03:33;;;;;;;30.48;14.82;;;;;;;;;;6145457;28;20321;-59
2022/09/26 16:06:40;;;;;;;31.35;15.07;;;;;;;;;;6143282;29;20639;-59
2022/09/26 16:09:44;;;;;;;32.00;14.43;;;;;;;;;;6145394;29;20125;-58
2022/09/26 16:12:46;;;;;;;40.33;16.52;;;;;;;;;;6145598;28;20122;-58
2022/09/26 16:15:47;;;;;;;38.58;17.05;;;;;;;;;;6144819;29;20051;-59
2022/09/26 16:18:54;;;;;;;38.40;17.88;;;;;;;;;;6145021;29;20525;-57
2022/09/26 16:21:55;;;;;;;45.97;20.33;;;;;;;;;;6145656;29;20066;-59
2022/09/26 16:25:22;;;;;;;50.30;22.13;;;;;;;;;;6148495;28;20055;-60
2022/09/26 16:28:43;;;;;;;43.05;18.02;;;;;;;;;;6142882;28;20772;-60
2022/09/26 16:31:46;;;;;;;37.45;17.55;;;;;;;;;;6145285;28;20930;-60
2022/09/26 16:34:47;;;;;;;38.47;17.33;;;;;;;;;;6149900;28;20395;-57
2022/09/26 16:37:58;;;;;;;40.38;17.77;;;;;;;;;;6144553;29;21151;-58
2022/09/26 16:41:29;;;;;;;51.92;19.45;;;;;;;;;;6142457;29;20053;-60
2022/09/26 16:44:35;;;;;;;55.60;20.08;;;;;;;;;;6161726;28;20055;-57
2022/09/26 16:47:43;;;;;;;184.75;55.40;;;;;;;;;;6168330;28;20039;-60
2022/09/26 16:50:44;;;;;;;129.18;40.55;;;;;;;;;;6168473;28;20091;-60
2022/09/26 16:53:46;;;;;;;108.78;36.28;;;;;;;;;;6167290;28;20039;-57
2022/09/26 16:56:50;;;;;;;66.18;28.23;;;;;;;;;;6168285;28;20059;-59
2022/09/26 16:59:51;;;;;;;45.53;21.13;;;;;;;;;;6168334;28;20043;-60
2022/09/26 17:02:52;;;;;;;63.50;26.90;;;;;;;;;;6166155;28;20594;-58
2022/09/26 17:05:54;;;;;;;80.57;31.60;;;;;;;;;;6167263;28;20035;-58
2022/09/26 17:09:01;;;;;;;66.43;29.02;;;;;;;;;;6165134;28;20065;-58
2022/09/26 17:12:04;;;;;;;77.95;36.45;;;;;;;;;;6166177;28;20054;-58
2022/09/26 17:15:07;;;;;;;182.55;65.65;;;;;;;;;;6167042;28;20057;-61
2022/09/26 17:18:10;;;;;;;167.93;67.20;;;;;;;;;;6167553;28;20047;-56
2022/09/26 17:21:11;;;;;;;110.45;43.85;;;;;;;;;;6168157;28;20509;-58
2022/09/26 17:24:18;;;;;;;82.47;34.13;;;;;;;;;;6167356;28;20054;-58
2022/09/26 17:27:26;;;;;;;84.78;32.30;;;;;;;;;;6164684;28;20158;-58
2022/09/26 17:30:26;;;;;;;57.22;23.80;;;;;;;;;;6157176;28;20062;-60
2022/09/26 17:33:28;;;;;;;64.22;26.58;;;;;;;;;;6156906;28;20495;-58
2022/09/26 17:36:28;;;;;;;65.45;28.13;;;;;;;;;;6156135;28;20054;-60
2022/09/26 17:39:29;;;;;;;87.95;31.33;;;;;;;;;;6157371;28;20057;-60
2022/09/26 17:42:30;;;;;;;112.32;50.55;;;;;;;;;;6157158;28;20061;-64
2022/09/26 17:45:33;;;;;;;135.07;55.05;;;;;;;;;;6157621;28;20058;-63
2022/09/26 17:48:34;;;;;;;147.02;57.25;;;;;;;;;;6156249;28;20486;-62
2022/09/26 17:51:35;;;;;;;137.07;53.83;;;;;;;;;;6157504;28;20094;-59
2022/09/26 17:54:41;;;;;;;108.13;42.78;;;;;;;;;;6156729;28;20049;-60
2022/09/26 17:57:41;;;;;;;107.13;40.38;;;;;;;;;;6157533;28;20194;-56
2022/09/26 18:00:45;;;;;;;100.28;36.30;;;;;;;;;;6156940;28;20412;-62
2022/09/26 18:03:48;;;;;;;138.68;51.70;;;;;;;;;;6155896;28;20053;-62
2022/09/26 18:06:49;;;;;;;158.02;68.57;;;;;;;;;;6157284;28;20055;-61
2022/09/26 18:09:51;;;;;;;134.55;51.92;;;;;;;;;;6157004;28;20177;-61
2022/09/26 18:12:56;;;;;;;120.60;49.03;;;;;;;;;;6156994;28;20047;-59
2022/09/26 18:15:57;;;;;;;111.97;44.80;;;;;;;;;;6155918;28;20130;-61
2022/09/26 18:18:59;;;;;;;119.97;46.25;;;;;;;;;;6155974;28;20434;-58
2022/09/26 18:21:59;;;;;;;114.93;45.92;;;;;;;;;;6156062;28;20050;-62
2022/09/26 18:25:07;;;;;;;141.00;61.22;;;;;;;;;;6153997;28;20394;-59
2022/09/26 18:28:12;;;;;;;128.77;49.65;;;;;;;;;;6154870;28;20109;-61